Latest Coastal Weather Observations for Devonport Airport

IDV60701

Issued at 8:35 pm EST Friday 25 July 2014 (issued every 10 minutes, with the page automatically refreshed every 10 minutes)

About coastal observations | Map of coastal stations | Coastal observations for VIC | Marine services | Other Formats
Station Details ID: 091126 Name: DEVONPORT AIRPORT Lat: -41.17 Lon: 146.43 Height: 8.0 m
Data from the previous 72 hours. | See also: Recent months at Devonport Airport
Date/Time
EST
Temp

°C
Wind Pressure Rain
since 9am
mm
Weather Cloud Vis
km
Sea
Height
m
Swell
Dir
 
Speed
knots
Gust
knots
hPa Trend Height
m
Period
s
Dir
25/08:30pm 11.0 SSE 5 7 1018.5 - 2.8 - Partly cloudy 10 - - - -
25/08:00pm 11.4 ESE 4 5 1018.4 - 2.6 - Partly cloudy 10 - - - -
25/07:30pm 11.3 NE 11 12 1018.3 - 2.2 - Partly cloudy 10 - - - -
25/07:00pm 11.1 SE 5 6 1017.9 - 1.8 - Partly cloudy 10 - - - -
25/06:53pm 11.2 SE 4 5 1017.7 - 1.8 - Partly cloudy 10 - - - -
25/06:31pm 11.4 S 3 5 1017.6 - 1.0 - Partly cloudy 6 - - - -
25/06:30pm 11.4 S 4 6 1017.6 - 0.8 - Partly cloudy 7 - - - -
25/06:00pm 11.7 SSE 5 6 1017.3 - 0.4 - Cloudy 10 - - - -
25/05:30pm 11.9 SSE 4 5 1017.0 - 0.4 - Partly cloudy 10 - - - -
25/05:00pm 12.2 S 3 5 1016.8 - 0.4 - Partly cloudy 10 - - - -
25/04:30pm 13.0 E 5 6 1016.6 - 0.4 - Partly cloudy 10 - - - -
25/04:00pm 13.1 ENE 6 8 1016.6 - 0.4 - Partly cloudy 10 - - - -
25/03:30pm 13.3 ENE 6 8 1016.2 - 0.4 - Partly cloudy 10 - - - -
25/03:00pm 13.6 E 5 10 1016.2 - 0.4 Showers Cloudy 10 - - - -
25/02:52pm 13.4 ESE 3 5 1016.0 - 0.4 - Partly cloudy 10 - - - -
25/02:35pm 12.5 S 3 5 1016.0 - 0.2 - Partly cloudy 10 - - - -
25/02:32pm 12.5 S 3 5 1016.0 - 0.2 - Partly cloudy 10 - - - -
25/02:30pm 12.4 S 3 5 1016.0 - 0.2 - Partly cloudy 10 - - - -
25/02:00pm 12.0 S 5 6 1016.0 - 0.2 - Cloudy 10 - - - -
25/01:30pm 12.1 S 5 6 1016.0 - 0.2 - Cloudy 10 - - - -
25/01:14pm 12.1 S 6 7 1016.1 - 0.2 - Cloudy 10 - - - -
25/01:00pm 12.2 S 6 7 1016.3 - 0.2 - Cloudy 10 - - - -
25/12:30pm 11.9 S 7 8 1016.3 - 0.2 - Partly cloudy 10 - - - -
25/12:00pm 11.4 S 8 9 1016.8 - 0.2 Showers Cloudy 10 - - - -
25/11:30am 11.3 S 7 9 1017.2 - 0.0 - Partly cloudy 10 - - - -
25/11:00am 11.3 S 7 9 1017.6 - 0.0 - Partly cloudy 10 - - - -
25/10:30am 10.8 S 7 9 1017.6 - 0.0 - Partly cloudy 10 - - - -
25/10:00am 10.6 S 9 11 1017.5 - 0.0 - Cloudy 10 - - - -
25/09:30am 10.4 S 10 11 1017.4 - 0.0 - Partly cloudy 10 - - - -
25/09:00am 10.2 S 11 11 1017.3 - 0.0 Drizzle Cloudy 10 - - - -
25/08:30am 9.5 SSE 8 11 1017.1 - 0.0 - Partly cloudy 10 - - - -
25/08:00am 9.0 S 10 12 1017.0 - 0.0 - Partly cloudy 10 - - - -
25/07:30am 9.1 S 10 13 1016.7 - 0.0 - Partly cloudy 10 - - - -
25/07:00am 9.2 S 11 12 1016.6 - 0.0 - Cloudy 10 - - - -
25/06:30am 8.8 S 10 13 1016.5 - 0.0 - Partly cloudy 10 - - - -
25/06:00am 8.9 SSE 10 12 1016.2 - 0.0 - Cloudy 10 - - - -
25/05:30am 8.8 S 8 10 1016.2 - 0.0 - Partly cloudy 10 - - - -
25/05:00am 8.7 SSE 9 10 1016.2 - 0.0 - Partly cloudy 10 - - - -
25/04:30am 9.3 SSE 9 11 1016.0 - 0.0 - Partly cloudy 10 - - - -
25/04:00am 8.9 S 6 7 1016.1 - 0.0 - Partly cloudy 10 - - - -
25/03:30am 9.2 SSE 9 11 1015.7 - 0.0 - Partly cloudy 10 - - - -
25/03:00am 9.1 SSE 9 11 1016.2 - 0.0 - Mostly cloudy 10 - - - -
25/02:30am 8.6 SSE 10 11 1016.0 - 0.0 - Cloudy 10 - - - -
25/02:00am 8.6 SSE 10 11 1016.3 - 0.0 - Cloudy 10 - - - -
25/01:30am 8.8 SSE 10 11 1016.2 - 0.0 - Partly cloudy 10 - - - -
25/01:00am 8.6 SSE 9 11 1016.3 - 0.0 - Partly cloudy 10 - - - -
25/12:30am 9.1 SSE 9 11 1016.5 - 0.0 - Partly cloudy 10 - - - -
25/12:00am 9.5 SSE 11 13 1016.6 - 0.0 - Cloudy 10 - - - -
 
Date/Time
EST
Temp

°C
Wind Pressure Rain
since 9am
mm
Weather Cloud Vis
km
Sea
Height
m
Swell
Dir
 
Speed
knots
Gust
knots
hPa Trend Height
m
Period
s
Dir
24/11:30pm 9.3 SSE 11 13 1016.7 - 0.0 - Cloudy 10 - - - -
24/11:00pm 9.5 SSE 10 12 1017.1 - 0.0 - Cloudy 10 - - - -
24/10:30pm 9.8 SSE 11 13 1017.1 - 0.0 - Partly cloudy 10 - - - -
24/10:00pm 9.7 SSE 10 12 1017.4 - 0.0 - Partly cloudy 10 - - - -
24/09:30pm 10.2 SSE 12 15 1017.2 - 0.0 - Partly cloudy 10 - - - -
24/09:00pm 10.0 SSE 10 11 1017.3 - 0.0 - Cloudy 10 - - - -
24/08:30pm 10.0 SSE 11 13 1017.1 - 0.0 - - 10 - - - -
24/08:00pm 10.3 SSE 13 15 1017.3 - 0.0 - - 10 - - - -
24/07:30pm 10.3 SSE 13 16 1017.1 - 0.0 - Partly cloudy 10 - - - -
24/07:00pm 10.4 SSE 13 16 1017.0 - 0.0 - Partly cloudy 10 - - - -
24/06:30pm 11.1 SSE 14 17 1017.0 - 0.0 - Partly cloudy 10 - - - -
24/06:00pm 11.4 SSE 13 16 1017.2 - 0.0 - Cloudy 10 - - - -
24/05:30pm 11.5 SE 11 14 1017.0 - 0.0 - Partly cloudy 10 - - - -
24/05:00pm 12.2 SE 10 13 1017.0 - 0.0 - Partly cloudy 10 - - - -
24/04:30pm 12.2 SE 6 6 1016.9 - 0.0 - Partly cloudy 10 - - - -
24/04:00pm 13.5 ESE 6 7 1016.8 - 0.0 - Cloudy 10 - - - -
24/03:30pm 14.1 E 9 12 1016.8 - 0.0 - Partly cloudy 10 - - - -
24/03:00pm 14.7 E 9 12 1016.9 - 0.0 - Mostly cloudy 10 - - - -
24/02:30pm 14.5 E 9 11 1017.0 - 0.0 - Partly cloudy 10 - - - -
24/02:00pm 13.8 SE 8 14 1017.2 - 0.0 - Partly cloudy 10 - - - -
24/01:30pm 13.9 SE 9 11 1017.4 - 0.0 - Cloudy 10 - - - -
24/01:00pm 13.3 SE 9 12 1017.9 - 0.0 - Cloudy 10 - - - -
24/12:30pm 13.3 ESE 9 12 1018.2 - 0.0 - Partly cloudy 10 - - - -
24/12:00pm 13.3 SSE 11 14 1018.5 - 0.0 - Mostly cloudy 10 - - - -
24/11:30am 12.7 SE 10 13 1019.3 - 0.0 - Partly cloudy 10 - - - -
24/11:00am 11.2 SSE 10 13 1019.5 - 0.0 - Partly cloudy 10 - - - -
24/10:30am 9.9 S 9 12 1019.7 - 0.0 - - 10 - - - -
24/10:00am 9.1 S 10 13 1019.9 - 0.0 - Partly cloudy 10 - - - -
24/09:30am 8.4 S 10 13 1020.0 - 0.0 - Partly cloudy 10 - - - -
24/09:00am 7.7 S 11 14 1020.0 - 0.0 - Cloudy 10 - - - -
24/08:30am 7.2 SSE 11 13 1020.0 - 0.0 - Partly cloudy 10 - - - -
24/08:00am 6.7 S 10 13 1020.1 - 0.0 - Cloudy 10 - - - -
24/07:30am 6.4 SSE 10 12 1019.9 - 0.0 - Partly cloudy 10 - - - -
24/07:00am 6.4 S 11 13 1019.8 - 0.0 - Partly cloudy 10 - - - -
24/06:30am 6.4 S 10 12 1019.7 - 0.0 - Cloudy 10 - - - -
24/06:00am 5.8 S 11 13 1019.6 - 0.0 - Cloudy 10 - - - -
24/05:30am 6.3 SSE 11 13 1019.6 - 0.0 - Partly cloudy 10 - - - -
24/05:00am 6.2 SSE 9 11 1019.7 - 0.0 - Cloudy 10 - - - -
24/04:30am 6.2 SSE 10 12 1019.7 - 0.0 - Cloudy 10 - - - -
24/04:00am 6.3 S 10 12 1020.0 - 0.0 - Cloudy 10 - - - -
24/03:30am 6.5 S 11 12 1020.1 - 0.0 - Partly cloudy 10 - - - -
24/03:00am 6.1 S 10 11 1020.3 - 0.0 - Cloudy 10 - - - -
24/02:30am 5.9 SSE 11 13 1020.5 - 0.0 - Partly cloudy 10 - - - -
24/02:00am 5.7 S 10 11 1020.7 - 0.0 - Cloudy 10 - - - -
24/01:30am 5.4 S 8 11 1020.6 - 0.0 - Partly cloudy 10 - - - -
24/01:00am 5.5 S 8 11 1020.8 - 0.0 - Partly cloudy 10 - - - -
24/12:30am 5.5 S 8 11 1021.0 - 0.0 - Cloudy 10 - - - -
24/12:00am 5.1 S 8 11 1021.3 - 0.0 - Cloudy 10 - - - -
 
Date/Time
EST
Temp

°C
Wind Pressure Rain
since 9am
mm
Weather Cloud Vis
km
Sea
Height
m
Swell
Dir
 
Speed
knots
Gust
knots
hPa Trend Height
m
Period
s
Dir
23/11:30pm 5.6 S 8 9 1021.7 - 0.0 - Cloudy 10 - - - -
23/11:00pm 5.6 S 8 11 1021.8 - 0.0 - Cloudy 10 - - - -
23/10:30pm 5.3 S 6 8 1021.9 - 0.0 - Partly cloudy 10 - - - -
23/10:00pm 5.0 S 6 7 1022.1 - 0.0 - - 10 - - - -
23/09:30pm 5.1 S 6 8 1022.3 - 0.0 - - 10 - - - -
23/09:00pm 5.2 SSE 7 8 1022.2 - 0.0 - - 10 - - - -
23/08:30pm 5.2 SSE 7 8 1022.2 - 0.0 - - 10 - - - -
23/08:00pm 5.0 SSE 8 9 1022.1 - 0.0 - - 10 - - - -
23/07:30pm 4.9 SSE 6 7 1022.2 - 0.0 - - 10 - - - -
23/07:00pm 4.7 SE 3 5 1022.0 - 0.0 - - 10 - - - -
23/06:30pm 5.3 SE 5 6 1021.8 - 0.0 - - 10 - - - -
23/06:00pm 6.0 CALM 0 0 1021.9 - 0.0 - - 10 - - - -
23/05:30pm 8.0 WSW 1 7 1021.8 - 0.0 - - 10 - - - -
23/05:00pm 9.5 NW 1 3 1021.6 - 0.0 - - 10 - - - -
23/04:30pm 10.8 NW 4 5 1021.6 - 0.0 - - 10 - - - -
23/04:00pm 11.2 NNW 6 7 1021.7 - 0.0 - - 10 - - - -
23/03:30pm 11.5 NNW 4 6 1021.6 - 0.0 - - 10 - - - -
23/03:00pm 11.5 NW 6 8 1021.8 - 0.0 - - 10 - - - -
23/02:30pm 11.7 NW 8 9 1022.1 - 0.0 - - 10 - - - -
23/02:00pm 12.1 N 7 8 1022.0 - 0.0 - - 10 - - - -
23/01:30pm 11.8 N 7 8 1022.2 - 0.0 - - 10 - - - -
23/01:00pm 12.0 N 6 7 1022.5 - 0.0 - - 10 - - - -
23/12:30pm 12.3 S 2 4 1023.0 - 0.0 - - 10 - - - -
23/12:00pm 11.5 S 3 5 1023.6 - 0.0 - - 10 - - - -
23/11:30am 10.7 S 6 7 1024.1 - 0.0 - - 10 - - - -
23/11:00am 10.0 S 5 6 1024.8 - 0.0 - - 10 - - - -
23/10:30am 8.8 S 7 8 1025.2 - 0.0 - - 10 - - - -
23/10:00am 7.9 S 8 9 1025.2 - 0.0 - - 10 - - - -
23/09:30am 6.9 S 4 7 1025.2 - 0.0 - - 10 - - - -
23/09:00am 5.4 S 4 6 1025.1 - 0.0 - - 10 - - - -
23/08:30am 3.9 S 7 10 1024.8 - 0.0 - - 10 - - - -
23/08:00am 3.4 S 8 9 1024.8 - 0.0 - - 10 - - - -
23/07:30am 3.1 S 9 10 1024.7 - 0.0 - - 10 - - - -
23/07:00am 3.3 S 7 9 1024.5 - 0.0 - - 10 - - - -
23/06:30am 3.5 S 9 11 1024.4 - 0.0 - - 10 - - - -
23/06:00am 3.2 S 10 11 1024.4 - 0.0 - - 10 - - - -
23/05:30am 2.9 S 9 11 1024.4 - 0.0 - - 10 - - - -
23/05:00am 3.7 S 10 11 1024.4 - 0.0 - - 10 - - - -
23/04:30am 3.3 S 9 11 1024.5 - 0.0 - - 10 - - - -
23/04:00am 3.6 S 9 10 1024.7 - 0.0 - - 10 - - - -
23/03:30am 5.0 S 8 9 1025.0 - 0.0 - - 10 - - - -
23/03:00am 4.1 S 8 10 1025.1 - 0.0 - - 10 - - - -
23/02:30am 4.3 S 7 9 1025.2 - 0.0 - - 10 - - - -
23/02:00am 4.4 S 7 9 1025.1 - 0.0 - - 10 - - - -
23/01:30am 4.3 S 8 9 1024.9 - 0.0 - - 10 - - - -
23/01:00am 5.4 S 7 8 1024.8 - 0.0 - - 10 - - - -
23/12:30am 5.6 S 7 8 1025.0 - 0.0 - - 10 - - - -
23/12:00am 5.6 S 8 10 1025.1 - 0.0 - Mostly clear 10 - - - -
 
Date/Time
EST
Temp

°C
Wind Pressure Rain
since 9am
mm
Weather Cloud Vis
km
Sea
Height
m
Swell
Dir
 
Speed
knots
Gust
knots
hPa Trend Height
m
Period
s
Dir
22/11:30pm 5.3 S 8 9 1025.4 - 0.0 - - 10 - - - -
22/11:00pm 5.6 S 8 9 1025.5 - 0.0 - - 10 - - - -
22/10:30pm 6.2 S 7 9 1025.6 - 0.0 - - 10 - - - -
22/10:00pm 6.6 S 7 8 1025.5 - 0.0 - Partly cloudy 10 - - - -
22/09:30pm 6.7 S 6 7 1025.6 - 0.0 - Cloudy 10 - - - -
22/09:00pm 6.8 SSE 6 7 1025.4 - 0.0 - Cloudy 10 - - - -

Other Formats:

Comma delimited format used in spreadsheet applications
http://www.bom.gov.au/fwo/IDV60701/IDV60701.95960.axf

JavaScript Object Notation format (JSON) in row-major order
http://www.bom.gov.au/fwo/IDV60701/IDV60701.95960.json